sensor_id;sensor_type;location;lat;lon;timestamp;pressure;altitude;pressure_sealevel;temperature;humidity
61018;BME280;48171;51.550;5.434;2023-06-22T00:00:50;101874.16;;;20.01;84.39
61018;BME280;48171;51.550;5.434;2023-06-22T00:03:17;101871.53;;;19.97;84.96
61018;BME280;48171;51.550;5.434;2023-06-22T00:05:43;101870.63;;;19.98;84.94
61018;BME280;48171;51.550;5.434;2023-06-22T00:08:08;101874.06;;;20.04;85.64
61018;BME280;48171;51.550;5.434;2023-06-22T00:10:34;101862.41;;;20.05;85.36
61018;BME280;48171;51.550;5.434;2023-06-22T00:13:00;101859.06;;;19.96;85.09
61018;BME280;48171;51.550;5.434;2023-06-22T00:15:25;101875.88;;;20.02;85.83
61018;BME280;48171;51.550;5.434;2023-06-22T00:17:51;101873.31;;;19.98;85.35
61018;BME280;48171;51.550;5.434;2023-06-22T00:20:16;101867.16;;;19.95;85.67
61018;BME280;48171;51.550;5.434;2023-06-22T00:22:43;101855.81;;;19.85;85.85
61018;BME280;48171;51.550;5.434;2023-06-22T00:25:09;101857.81;;;19.78;85.85
61018;BME280;48171;51.550;5.434;2023-06-22T00:27:35;101871.97;;;19.84;85.54
61018;BME280;48171;51.550;5.434;2023-06-22T00:30:01;101867.47;;;19.84;84.75
61018;BME280;48171;51.550;5.434;2023-06-22T00:32:26;101862.25;;;19.80;84.69
61018;BME280;48171;51.550;5.434;2023-06-22T00:34:52;101864.84;;;19.83;85.54
61018;BME280;48171;51.550;5.434;2023-06-22T00:37:18;101867.63;;;19.80;86.04
61018;BME280;48171;51.550;5.434;2023-06-22T00:39:43;101869.56;;;19.74;85.62
61018;BME280;48171;51.550;5.434;2023-06-22T00:42:08;101869.66;;;19.70;85.40
61018;BME280;48171;51.550;5.434;2023-06-22T00:44:35;101865.16;;;19.70;84.89
61018;BME280;48171;51.550;5.434;2023-06-22T00:47:00;101858.97;;;19.68;85.07
61018;BME280;48171;51.550;5.434;2023-06-22T00:49:26;101856.31;;;19.67;85.25
61018;BME280;48171;51.550;5.434;2023-06-22T00:51:52;101864.56;;;19.59;86.10
61018;BME280;48171;51.550;5.434;2023-06-22T00:54:17;101860.34;;;19.52;87.07
61018;BME280;48171;51.550;5.434;2023-06-22T00:56:51;101858.56;;;19.51;87.43
61018;BME280;48171;51.550;5.434;2023-06-22T00:59:17;101861.16;;;19.54;86.98
61018;BME280;48171;51.550;5.434;2023-06-22T01:01:43;101854.97;;;19.52;86.60
61018;BME280;48171;51.550;5.434;2023-06-22T01:04:09;101848.75;;;19.51;85.97
61018;BME280;48171;51.550;5.434;2023-06-22T01:09:52;101838.66;;;19.27;86.96
61018;BME280;48171;51.550;5.434;2023-06-22T01:12:19;101845.03;;;19.23;88.01
61018;BME280;48171;51.550;5.434;2023-06-22T01:15:00;101848.66;;;19.22;87.39
61018;BME280;48171;51.550;5.434;2023-06-22T01:17:27;101842.66;;;19.12;87.65
61018;BME280;48171;51.550;5.434;2023-06-22T01:19:54;101842.69;;;19.10;88.13
61018;BME280;48171;51.550;5.434;2023-06-22T01:22:23;101850.88;;;19.04;87.83
61018;BME280;48171;51.550;5.434;2023-06-22T01:25:05;101853.47;;;19.09;87.87
61018;BME280;48171;51.550;5.434;2023-06-22T01:28:05;101854.50;;;19.03;87.79
61018;BME280;48171;51.550;5.434;2023-06-22T01:33:13;101852.94;;;18.94;88.48
61018;BME280;48171;51.550;5.434;2023-06-22T01:35:40;101858.34;;;18.93;89.17
61018;BME280;48171;51.550;5.434;2023-06-22T01:38:06;101857.50;;;18.91;89.78
61018;BME280;48171;51.550;5.434;2023-06-22T01:40:33;101842.38;;;18.88;90.17
61018;BME280;48171;51.550;5.434;2023-06-22T01:43:00;101852.34;;;18.83;90.80
61018;BME280;48171;51.550;5.434;2023-06-22T01:45:26;101845.84;;;18.92;90.49
61018;BME280;48171;51.550;5.434;2023-06-22T01:47:52;101843.13;;;18.95;90.21
61018;BME280;48171;51.550;5.434;2023-06-22T01:50:18;101846.56;;;18.98;91.12
61018;BME280;48171;51.550;5.434;2023-06-22T01:52:43;101833.28;;;18.95;91.52
61018;BME280;48171;51.550;5.434;2023-06-22T01:55:09;101842.03;;;19.01;91.14
61018;BME280;48171;51.550;5.434;2023-06-22T01:57:35;101832.50;;;18.90;90.60
61018;BME280;48171;51.550;5.434;2023-06-22T02:00:04;101842.19;;;18.96;90.80
61018;BME280;48171;51.550;5.434;2023-06-22T02:02:40;101845.84;;;18.92;90.62
61018;BME280;48171;51.550;5.434;2023-06-22T02:05:12;101844.41;;;18.78;91.58
61018;BME280;48171;51.550;5.434;2023-06-22T02:08:01;101837.28;;;18.79;90.45
61018;BME280;48171;51.550;5.434;2023-06-22T02:10:28;101825.75;;;18.74;91.63
61018;BME280;48171;51.550;5.434;2023-06-22T02:12:54;101843.56;;;18.76;91.40
61018;BME280;48171;51.550;5.434;2023-06-22T02:15:21;101832.91;;;18.73;91.18
61018;BME280;48171;51.550;5.434;2023-06-22T02:17:47;101840.09;;;18.71;91.18
61018;BME280;48171;51.550;5.434;2023-06-22T02:20:13;101834.88;;;18.67;91.67
61018;BME280;48171;51.550;5.434;2023-06-22T02:22:39;101841.09;;;18.67;91.71
61018;BME280;48171;51.550;5.434;2023-06-22T02:25:04;101840.97;;;18.72;91.60
61018;BME280;48171;51.550;5.434;2023-06-22T02:27:30;101838.25;;;18.73;91.59
61018;BME280;48171;51.550;5.434;2023-06-22T02:29:56;101834.75;;;18.71;91.35
61018;BME280;48171;51.550;5.434;2023-06-22T02:32:22;101831.34;;;18.65;91.68
61018;BME280;48171;51.550;5.434;2023-06-22T02:34:47;101822.63;;;18.56;92.42
61018;BME280;48171;51.550;5.434;2023-06-22T02:37:15;101822.56;;;18.58;92.71
61018;BME280;48171;51.550;5.434;2023-06-22T02:39:40;101819.81;;;18.63;92.57
61018;BME280;48171;51.550;5.434;2023-06-22T02:42:06;101811.88;;;18.58;92.64
61018;BME280;48171;51.550;5.434;2023-06-22T02:44:31;101813.75;;;18.54;92.39
61018;BME280;48171;51.550;5.434;2023-06-22T02:46:57;101812.00;;;18.52;92.73
61018;BME280;48171;51.550;5.434;2023-06-22T02:49:23;101822.63;;;18.56;92.51
61018;BME280;48171;51.550;5.434;2023-06-22T02:51:48;101809.47;;;18.47;92.84
61018;BME280;48171;51.550;5.434;2023-06-22T02:54:14;101807.78;;;18.43;93.71
61018;BME280;48171;51.550;5.434;2023-06-22T02:56:39;101817.63;;;18.41;93.23
61018;BME280;48171;51.550;5.434;2023-06-22T02:59:06;101815.78;;;18.45;93.25
61018;BME280;48171;51.550;5.434;2023-06-22T03:01:31;101812.16;;;18.46;92.60
61018;BME280;48171;51.550;5.434;2023-06-22T03:04:05;101806.25;;;18.33;93.91
61018;BME280;48171;51.550;5.434;2023-06-22T03:06:30;101804.63;;;18.26;94.47
61018;BME280;48171;51.550;5.434;2023-06-22T03:09:00;101803.03;;;18.18;94.87
61018;BME280;48171;51.550;5.434;2023-06-22T03:11:26;101781.91;;;18.06;95.04
61018;BME280;48171;51.550;5.434;2023-06-22T03:13:52;101790.75;;;18.10;95.35
61018;BME280;48171;51.550;5.434;2023-06-22T03:16:18;101794.19;;;18.15;95.35
61018;BME280;48171;51.550;5.434;2023-06-22T03:18:44;101788.84;;;18.13;95.45
61018;BME280;48171;51.550;5.434;2023-06-22T03:21:09;101785.25;;;18.16;95.52
61018;BME280;48171;51.550;5.434;2023-06-22T03:23:34;101777.13;;;18.21;94.83
61018;BME280;48171;51.550;5.434;2023-06-22T03:26:01;101786.78;;;18.26;94.70
61018;BME280;48171;51.550;5.434;2023-06-22T03:28:26;101779.63;;;18.27;94.76
61018;BME280;48171;51.550;5.434;2023-06-22T03:30:52;101776.94;;;18.28;94.56
61018;BME280;48171;51.550;5.434;2023-06-22T03:33:17;101779.47;;;18.33;94.50
61018;BME280;48171;51.550;5.434;2023-06-22T03:35:42;101782.22;;;18.30;93.94
61018;BME280;48171;51.550;5.434;2023-06-22T03:38:07;101782.16;;;18.33;94.52
61018;BME280;48171;51.550;5.434;2023-06-22T03:40:33;101783.00;;;18.35;94.08
61018;BME280;48171;51.550;5.434;2023-06-22T03:42:58;101781.22;;;18.34;94.41
61018;BME280;48171;51.550;5.434;2023-06-22T03:45:23;101775.00;;;18.33;94.58
61018;BME280;48171;51.550;5.434;2023-06-22T03:47:48;101774.97;;;18.35;94.45
61018;BME280;48171;51.550;5.434;2023-06-22T03:50:14;101776.69;;;18.37;94.43
61018;BME280;48171;51.550;5.434;2023-06-22T03:52:40;101781.09;;;18.40;94.17
61018;BME280;48171;51.550;5.434;2023-06-22T03:55:06;101779.34;;;18.39;94.18
61018;BME280;48171;51.550;5.434;2023-06-22T03:57:32;101766.75;;;18.43;93.69
61018;BME280;48171;51.550;5.434;2023-06-22T03:59:57;101765.13;;;18.37;93.76
61018;BME280;48171;51.550;5.434;2023-06-22T04:02:23;101754.44;;;18.35;94.11
61018;BME280;48171;51.550;5.434;2023-06-22T04:04:48;101757.06;;;18.38;94.07
61018;BME280;48171;51.550;5.434;2023-06-22T04:07:13;101766.81;;;18.39;93.81
61018;BME280;48171;51.550;5.434;2023-06-22T04:09:39;101754.38;;;18.38;93.98
61018;BME280;48171;51.550;5.434;2023-06-22T04:12:05;101758.81;;;18.39;93.89
61018;BME280;48171;51.550;5.434;2023-06-22T04:14:30;101761.44;;;18.41;93.72
61018;BME280;48171;51.550;5.434;2023-06-22T04:16:55;101760.44;;;18.45;93.87
61018;BME280;48171;51.550;5.434;2023-06-22T04:19:20;101764.81;;;18.49;93.81
61018;BME280;48171;51.550;5.434;2023-06-22T04:21:46;101754.09;;;18.49;93.77
61018;BME280;48171;51.550;5.434;2023-06-22T04:24:13;101762.09;;;18.51;94.74
61018;BME280;48171;51.550;5.434;2023-06-22T04:26:39;101764.63;;;18.57;93.97
61018;BME280;48171;51.550;5.434;2023-06-22T04:29:07;101768.13;;;18.59;94.27
61018;BME280;48171;51.550;5.434;2023-06-22T04:31:34;101772.56;;;18.60;94.41
61018;BME280;48171;51.550;5.434;2023-06-22T04:34:05;101770.09;;;18.52;94.78
61018;BME280;48171;51.550;5.434;2023-06-22T04:36:39;101773.72;;;18.50;94.98
61018;BME280;48171;51.550;5.434;2023-06-22T04:39:12;101775.50;;;18.49;95.16
61018;BME280;48171;51.550;5.434;2023-06-22T04:41:38;101769.28;;;18.49;95.22
61018;BME280;48171;51.550;5.434;2023-06-22T04:44:08;101777.13;;;18.56;95.56
61018;BME280;48171;51.550;5.434;2023-06-22T04:46:33;101771.66;;;18.61;95.31
61018;BME280;48171;51.550;5.434;2023-06-22T04:49:03;101772.53;;;18.62;95.49
61018;BME280;48171;51.550;5.434;2023-06-22T04:51:31;101785.78;;;18.66;95.70
61018;BME280;48171;51.550;5.434;2023-06-22T04:53:56;101777.84;;;18.63;95.73
61018;BME280;48171;51.550;5.434;2023-06-22T04:56:26;101775.97;;;18.67;95.64
61018;BME280;48171;51.550;5.434;2023-06-22T04:58:53;101775.84;;;18.71;95.97
61018;BME280;48171;51.550;5.434;2023-06-22T05:01:22;101772.19;;;18.74;96.02
61018;BME280;48171;51.550;5.434;2023-06-22T05:03:47;101775.78;;;18.74;94.83
61018;BME280;48171;51.550;5.434;2023-06-22T05:06:13;101766.13;;;18.67;95.89
61018;BME280;48171;51.550;5.434;2023-06-22T05:08:39;101759.84;;;18.68;96.89
61018;BME280;48171;51.550;5.434;2023-06-22T05:11:04;101767.78;;;18.73;97.70
61018;BME280;48171;51.550;5.434;2023-06-22T05:13:30;101765.00;;;18.76;97.20
61018;BME280;48171;51.550;5.434;2023-06-22T05:15:55;101758.78;;;18.75;96.53
61018;BME280;48171;51.550;5.434;2023-06-22T05:18:27;101772.03;;;18.82;97.22
61018;BME280;48171;51.550;5.434;2023-06-22T05:20:55;101768.59;;;18.76;97.58
61018;BME280;48171;51.550;5.434;2023-06-22T05:23:20;101776.66;;;18.75;98.30
61018;BME280;48171;51.550;5.434;2023-06-22T05:25:45;101771.19;;;18.78;99.15
61018;BME280;48171;51.550;5.434;2023-06-22T05:28:11;101769.28;;;18.85;99.12
61018;BME280;48171;51.550;5.434;2023-06-22T05:30:36;101769.19;;;18.88;98.76
61018;BME280;48171;51.550;5.434;2023-06-22T05:33:02;101778.00;;;18.93;98.40
61018;BME280;48171;51.550;5.434;2023-06-22T05:35:27;101769.78;;;18.99;97.69
61018;BME280;48171;51.550;5.434;2023-06-22T05:37:52;101767.88;;;19.03;97.21
61018;BME280;48171;51.550;5.434;2023-06-22T05:40:17;101761.59;;;19.05;97.93
61018;BME280;48171;51.550;5.434;2023-06-22T05:42:43;101759.75;;;19.07;97.23
61018;BME280;48171;51.550;5.434;2023-06-22T05:45:09;101766.84;;;19.08;97.05
61018;BME280;48171;51.550;5.434;2023-06-22T05:47:34;101757.94;;;19.08;96.47
61018;BME280;48171;51.550;5.434;2023-06-22T05:49:59;101757.03;;;19.09;97.93
61018;BME280;48171;51.550;5.434;2023-06-22T05:52:25;101758.88;;;19.07;97.75
61018;BME280;48171;51.550;5.434;2023-06-22T05:54:50;101767.81;;;19.06;98.72
61018;BME280;48171;51.550;5.434;2023-06-22T05:57:15;101758.97;;;19.02;98.52
61018;BME280;48171;51.550;5.434;2023-06-22T05:59:40;101764.22;;;19.07;98.06
61018;BME280;48171;51.550;5.434;2023-06-22T06:02:06;101759.78;;;19.06;99.06
61018;BME280;48171;51.550;5.434;2023-06-22T06:04:31;101761.44;;;19.10;99.06
61018;BME280;48171;51.550;5.434;2023-06-22T06:06:56;101755.28;;;19.06;99.07
61018;BME280;48171;51.550;5.434;2023-06-22T06:09:22;101767.59;;;19.13;98.92
61018;BME280;48171;51.550;5.434;2023-06-22T06:11:47;101762.16;;;19.16;99.81
61018;BME280;48171;51.550;5.434;2023-06-22T06:14:12;101758.34;;;19.25;99.31
61018;BME280;48171;51.550;5.434;2023-06-22T06:16:38;101757.25;;;19.32;99.07
61018;BME280;48171;51.550;5.434;2023-06-22T06:19:03;101748.16;;;19.38;99.67
61018;BME280;48171;51.550;5.434;2023-06-22T06:21:28;101743.63;;;19.40;100.00
61018;BME280;48171;51.550;5.434;2023-06-22T06:23:53;101743.47;;;19.45;99.47
61018;BME280;48171;51.550;5.434;2023-06-22T06:26:19;101754.91;;;19.51;99.02
61018;BME280;48171;51.550;5.434;2023-06-22T06:28:51;101765.56;;;19.53;97.98
61018;BME280;48171;51.550;5.434;2023-06-22T06:31:17;101764.50;;;19.58;98.86
61018;BME280;48171;51.550;5.434;2023-06-22T06:33:43;101758.97;;;19.65;98.85
61018;BME280;48171;51.550;5.434;2023-06-22T06:36:08;101769.63;;;19.68;97.06
61018;BME280;48171;51.550;5.434;2023-06-22T06:38:33;101760.59;;;19.70;97.42
61018;BME280;48171;51.550;5.434;2023-06-22T06:40:58;101756.09;;;19.72;97.56
61018;BME280;48171;51.550;5.434;2023-06-22T06:43:24;101747.13;;;19.73;97.64
61018;BME280;48171;51.550;5.434;2023-06-22T06:45:50;101747.03;;;19.76;97.34
61018;BME280;48171;51.550;5.434;2023-06-22T06:48:15;101756.78;;;19.79;98.06
61018;BME280;48171;51.550;5.434;2023-06-22T06:50:40;101754.03;;;19.81;96.83
61018;BME280;48171;51.550;5.434;2023-06-22T06:53:05;101757.53;;;19.84;97.80
61018;BME280;48171;51.550;5.434;2023-06-22T06:55:31;101761.94;;;19.85;97.49
61018;BME280;48171;51.550;5.434;2023-06-22T06:57:58;101765.25;;;19.93;97.18
61018;BME280;48171;51.550;5.434;2023-06-22T07:00:24;101766.06;;;19.97;97.87
61018;BME280;48171;51.550;5.434;2023-06-22T07:02:51;101758.75;;;20.02;97.26
61018;BME280;48171;51.550;5.434;2023-06-22T07:05:16;101762.97;;;20.09;96.56
61018;BME280;48171;51.550;5.434;2023-06-22T07:07:41;101755.72;;;20.13;96.83
61018;BME280;48171;51.550;5.434;2023-06-22T07:10:07;101755.56;;;20.17;96.94
61018;BME280;48171;51.550;5.434;2023-06-22T07:12:33;101750.88;;;20.24;95.83
61018;BME280;48171;51.550;5.434;2023-06-22T07:15:04;101743.66;;;20.26;95.85
61018;BME280;48171;51.550;5.434;2023-06-22T07:17:30;101751.56;;;20.31;95.00
61018;BME280;48171;51.550;5.434;2023-06-22T07:19:56;101744.25;;;20.36;96.36
61018;BME280;48171;51.550;5.434;2023-06-22T07:22:21;101742.38;;;20.38;95.51
61018;BME280;48171;51.550;5.434;2023-06-22T07:24:46;101742.22;;;20.43;95.95
61018;BME280;48171;51.550;5.434;2023-06-22T07:27:11;101738.59;;;20.44;95.75
61018;BME280;48171;51.550;5.434;2023-06-22T07:29:37;101746.44;;;20.50;96.36
61018;BME280;48171;51.550;5.434;2023-06-22T07:32:05;101746.28;;;20.54;97.74
61018;BME280;48171;51.550;5.434;2023-06-22T07:34:30;101740.94;;;20.54;95.91
61018;BME280;48171;51.550;5.434;2023-06-22T07:36:55;101741.00;;;20.51;95.67
61018;BME280;48171;51.550;5.434;2023-06-22T07:39:21;101737.28;;;20.55;96.13
61018;BME280;48171;51.550;5.434;2023-06-22T07:41:50;101744.31;;;20.61;94.94
61018;BME280;48171;51.550;5.434;2023-06-22T07:44:16;101731.91;;;20.55;96.86
61018;BME280;48171;51.550;5.434;2023-06-22T07:46:41;101723.03;;;20.53;95.67
61018;BME280;48171;51.550;5.434;2023-06-22T07:49:06;101717.78;;;20.50;99.97
61018;BME280;48171;51.550;5.434;2023-06-22T07:51:33;101708.72;;;20.54;98.34
61018;BME280;48171;51.550;5.434;2023-06-22T07:53:59;101710.56;;;20.52;97.75
61018;BME280;48171;51.550;5.434;2023-06-22T07:56:25;101708.84;;;20.50;99.18
61018;BME280;48171;51.550;5.434;2023-06-22T07:58:50;101697.22;;;20.49;99.96
61018;BME280;48171;51.550;5.434;2023-06-22T08:01:15;101688.31;;;20.49;100.00
61018;BME280;48171;51.550;5.434;2023-06-22T08:03:41;101676.63;;;20.50;100.00
61018;BME280;48171;51.550;5.434;2023-06-22T08:06:07;101679.91;;;20.60;100.00
61018;BME280;48171;51.550;5.434;2023-06-22T08:08:34;101674.34;;;20.64;100.00
61018;BME280;48171;51.550;5.434;2023-06-22T08:11:00;101662.59;;;20.68;100.00
61018;BME280;48171;51.550;5.434;2023-06-22T08:13:25;101653.50;;;20.72;100.00
61018;BME280;48171;51.550;5.434;2023-06-22T08:15:50;101653.28;;;20.78;100.00
61018;BME280;48171;51.550;5.434;2023-06-22T08:18:16;101653.16;;;20.82;100.00
61018;BME280;48171;51.550;5.434;2023-06-22T08:23:17;101646.66;;;20.87;100.00
61018;BME280;48171;51.550;5.434;2023-06-22T08:25:42;101639.44;;;20.89;98.07
61018;BME280;48171;51.550;5.434;2023-06-22T08:28:07;101638.44;;;20.92;99.72
61018;BME280;48171;51.550;5.434;2023-06-22T08:30:33;101649.81;;;20.98;100.00
61018;BME280;48171;51.550;5.434;2023-06-22T08:32:58;101649.75;;;21.00;99.78
61018;BME280;48171;51.550;5.434;2023-06-22T08:35:24;101646.97;;;21.03;98.54
61018;BME280;48171;51.550;5.434;2023-06-22T08:37:50;101648.78;;;21.03;98.53
61018;BME280;48171;51.550;5.434;2023-06-22T08:40:18;101636.22;;;21.03;99.23
61018;BME280;48171;51.550;5.434;2023-06-22T08:42:45;101647.56;;;21.11;95.19
61018;BME280;48171;51.550;5.434;2023-06-22T08:45:10;101642.28;;;21.08;96.31
61018;BME280;48171;51.550;5.434;2023-06-22T08:47:36;101651.06;;;21.13;89.91
61018;BME280;48171;51.550;5.434;2023-06-22T08:50:01;101646.50;;;21.15;89.39
61018;BME280;48171;51.550;5.434;2023-06-22T08:52:30;101644.69;;;21.16;89.89
61018;BME280;48171;51.550;5.434;2023-06-22T08:54:55;101634.06;;;21.13;93.11
61018;BME280;48171;51.550;5.434;2023-06-22T08:57:21;101639.38;;;21.14;89.93
61018;BME280;48171;51.550;5.434;2023-06-22T08:59:46;101636.56;;;21.17;86.77
61018;BME280;48171;51.550;5.434;2023-06-22T09:02:12;101633.06;;;21.15;85.52
61018;BME280;48171;51.550;5.434;2023-06-22T09:04:37;101633.88;;;21.17;85.67
61018;BME280;48171;51.550;5.434;2023-06-22T09:07:02;101624.94;;;21.17;88.83
61018;BME280;48171;51.550;5.434;2023-06-22T09:09:28;101623.13;;;21.17;85.71
61018;BME280;48171;51.550;5.434;2023-06-22T09:11:53;101626.63;;;21.20;83.26
61018;BME280;48171;51.550;5.434;2023-06-22T09:14:18;101626.59;;;21.21;82.28
61018;BME280;48171;51.550;5.434;2023-06-22T09:16:44;101622.06;;;21.22;84.35
61018;BME280;48171;51.550;5.434;2023-06-22T09:19:09;101614.88;;;21.22;83.55
61018;BME280;48171;51.550;5.434;2023-06-22T09:21:36;101613.16;;;21.21;85.16
61018;BME280;48171;51.550;5.434;2023-06-22T09:24:02;101605.91;;;21.23;84.02
61018;BME280;48171;51.550;5.434;2023-06-22T09:26:27;101612.09;;;21.25;84.41
61018;BME280;48171;51.550;5.434;2023-06-22T09:28:52;101620.88;;;21.29;86.77
61018;BME280;48171;51.550;5.434;2023-06-22T09:31:18;101619.97;;;21.30;84.64
61018;BME280;48171;51.550;5.434;2023-06-22T09:33:51;101615.41;;;21.32;86.72
61018;BME280;48171;51.550;5.434;2023-06-22T09:36:16;101620.78;;;21.32;84.36
61018;BME280;48171;51.550;5.434;2023-06-22T09:38:42;101617.09;;;21.34;85.17
61018;BME280;48171;51.550;5.434;2023-06-22T09:41:07;101620.66;;;21.35;85.91
61018;BME280;48171;51.550;5.434;2023-06-22T09:43:32;101616.16;;;21.35;85.43
61018;BME280;48171;51.550;5.434;2023-06-22T09:46:00;101621.50;;;21.37;85.34
61018;BME280;48171;51.550;5.434;2023-06-22T09:48:27;101617.78;;;21.40;86.71
61018;BME280;48171;51.550;5.434;2023-06-22T09:50:53;101609.84;;;21.36;85.18
61018;BME280;48171;51.550;5.434;2023-06-22T09:53:18;101602.56;;;21.38;82.47
61018;BME280;48171;51.550;5.434;2023-06-22T09:55:43;101599.06;;;21.36;84.33
61018;BME280;48171;51.550;5.434;2023-06-22T09:58:09;101603.47;;;21.39;86.83
61018;BME280;48171;51.550;5.434;2023-06-22T10:00:34;101607.91;;;21.40;85.87
61018;BME280;48171;51.550;5.434;2023-06-22T10:03:00;101612.31;;;21.43;83.02
61018;BME280;48171;51.550;5.434;2023-06-22T10:05:25;101602.47;;;21.42;84.99
61018;BME280;48171;51.550;5.434;2023-06-22T10:07:50;101610.53;;;21.43;82.60
61018;BME280;48171;51.550;5.434;2023-06-22T10:10:15;101604.19;;;21.44;83.24
61018;BME280;48171;51.550;5.434;2023-06-22T10:12:54;101603.31;;;21.44;84.31
61018;BME280;48171;51.550;5.434;2023-06-22T10:15:20;101602.44;;;21.43;83.19
61018;BME280;48171;51.550;5.434;2023-06-22T10:17:46;101605.00;;;21.46;81.84
61018;BME280;48171;51.550;5.434;2023-06-22T10:20:12;101606.69;;;21.49;81.04
61018;BME280;48171;51.550;5.434;2023-06-22T10:22:40;101608.44;;;21.50;84.41
61018;BME280;48171;51.550;5.434;2023-06-22T10:25:06;101599.38;;;21.52;80.33
61018;BME280;48171;51.550;5.434;2023-06-22T10:27:32;101600.19;;;21.54;80.23
61018;BME280;48171;51.550;5.434;2023-06-22T10:29:57;101594.75;;;21.56;84.36
61018;BME280;48171;51.550;5.434;2023-06-22T10:32:22;101596.47;;;21.57;82.51
61018;BME280;48171;51.550;5.434;2023-06-22T10:34:47;101600.06;;;21.57;83.88
61018;BME280;48171;51.550;5.434;2023-06-22T10:37:13;101598.25;;;21.58;82.25
61018;BME280;48171;51.550;5.434;2023-06-22T10:39:38;101610.75;;;21.59;83.78
61018;BME280;48171;51.550;5.434;2023-06-22T10:42:03;101606.38;;;21.56;83.86
61018;BME280;48171;51.550;5.434;2023-06-22T10:44:29;101618.81;;;21.59;84.74
61018;BME280;48171;51.550;5.434;2023-06-22T10:46:54;101620.63;;;21.58;86.46
61018;BME280;48171;51.550;5.434;2023-06-22T10:49:19;101629.56;;;21.59;87.38
61018;BME280;48171;51.550;5.434;2023-06-22T10:51:45;101631.41;;;21.58;89.59
61018;BME280;48171;51.550;5.434;2023-06-22T10:54:10;101633.31;;;21.55;88.49
61018;BME280;48171;51.550;5.434;2023-06-22T10:56:35;101635.91;;;21.58;90.14
61018;BME280;48171;51.550;5.434;2023-06-22T10:59:00;101635.91;;;21.58;94.69
61018;BME280;48171;51.550;5.434;2023-06-22T11:04:02;101636.09;;;21.53;93.87
61018;BME280;48171;51.550;5.434;2023-06-22T11:06:27;101640.66;;;21.51;97.16
61018;BME280;48171;51.550;5.434;2023-06-22T11:08:53;101644.47;;;21.46;96.11
61018;BME280;48171;51.550;5.434;2023-06-22T11:11:18;101639.34;;;21.38;99.96
61018;BME280;48171;51.550;5.434;2023-06-22T11:13:43;101642.91;;;21.38;100.00
61018;BME280;48171;51.550;5.434;2023-06-22T11:16:10;101646.66;;;21.34;100.00
61018;BME280;48171;51.550;5.434;2023-06-22T11:18:35;101652.09;;;21.33;100.00
61018;BME280;48171;51.550;5.434;2023-06-22T11:21:00;101650.28;;;21.33;100.00
61018;BME280;48171;51.550;5.434;2023-06-22T11:23:25;101657.47;;;21.33;100.00
61018;BME280;48171;51.550;5.434;2023-06-22T11:25:53;101648.56;;;21.31;100.00
61018;BME280;48171;51.550;5.434;2023-06-22T11:28:18;101645.88;;;21.31;100.00
61018;BME280;48171;51.550;5.434;2023-06-22T11:30:43;101645.84;;;21.32;100.00
61018;BME280;48171;51.550;5.434;2023-06-22T11:33:09;101648.56;;;21.31;100.00
61018;BME280;48171;51.550;5.434;2023-06-22T11:35:34;101660.34;;;21.28;100.00
61018;BME280;48171;51.550;5.434;2023-06-22T11:37:59;101663.25;;;21.22;100.00
61018;BME280;48171;51.550;5.434;2023-06-22T11:40:24;101661.53;;;21.21;100.00
61018;BME280;48171;51.550;5.434;2023-06-22T11:42:50;101653.47;;;21.21;100.00
61018;BME280;48171;51.550;5.434;2023-06-22T11:45:15;101658.88;;;21.20;100.00
61018;BME280;48171;51.550;5.434;2023-06-22T11:47:42;101660.94;;;21.13;100.00
61018;BME280;48171;51.550;5.434;2023-06-22T11:50:08;101656.53;;;21.10;100.00
61018;BME280;48171;51.550;5.434;2023-06-22T11:52:33;101652.16;;;21.08;100.00
61018;BME280;48171;51.550;5.434;2023-06-22T11:55:01;101638.88;;;21.05;100.00
61018;BME280;48171;51.550;5.434;2023-06-22T11:57:28;101626.47;;;21.01;100.00
61018;BME280;48171;51.550;5.434;2023-06-22T11:59:53;101616.75;;;20.96;100.00
61018;BME280;48171;51.550;5.434;2023-06-22T12:02:19;101607.06;;;20.92;100.00
61018;BME280;48171;51.550;5.434;2023-06-22T12:04:44;101594.06;;;20.82;100.00
61018;BME280;48171;51.550;5.434;2023-06-22T12:07:09;101597.09;;;20.72;100.00
61018;BME280;48171;51.550;5.434;2023-06-22T12:09:34;101598.16;;;20.68;100.00
61018;BME280;48171;51.550;5.434;2023-06-22T12:12:00;101590.44;;;20.57;100.00
61018;BME280;48171;51.550;5.434;2023-06-22T12:14:25;101587.22;;;20.48;100.00
61018;BME280;48171;51.550;5.434;2023-06-22T12:16:50;101582.28;;;20.35;100.00
61018;BME280;48171;51.550;5.434;2023-06-22T12:19:15;101583.31;;;20.31;100.00
61018;BME280;48171;51.550;5.434;2023-06-22T12:21:41;101573.03;;;20.19;100.00
61018;BME280;48171;51.550;5.434;2023-06-22T12:24:07;101567.06;;;20.11;100.00
61018;BME280;48171;51.550;5.434;2023-06-22T12:26:32;101557.50;;;20.04;100.00
61018;BME280;48171;51.550;5.434;2023-06-22T12:28:57;101568.22;;;20.04;100.00
61018;BME280;48171;51.550;5.434;2023-06-22T12:31:22;101564.81;;;19.98;100.00
61018;BME280;48171;51.550;5.434;2023-06-22T12:33:48;101571.78;;;20.04;100.00
61018;BME280;48171;51.550;5.434;2023-06-22T12:36:13;101578.00;;;20.05;100.00
61018;BME280;48171;51.550;5.434;2023-06-22T12:38:38;101583.38;;;20.05;100.00
61018;BME280;48171;51.550;5.434;2023-06-22T12:41:03;101578.84;;;20.07;100.00
61018;BME280;48171;51.550;5.434;2023-06-22T12:43:29;101578.19;;;20.00;100.00
61018;BME280;48171;51.550;5.434;2023-06-22T12:45:54;101580.50;;;19.84;100.00
61018;BME280;48171;51.550;5.434;2023-06-22T12:48:19;101577.25;;;19.74;100.00
61018;BME280;48171;51.550;5.434;2023-06-22T12:50:45;101566.75;;;19.67;100.00
61018;BME280;48171;51.550;5.434;2023-06-22T12:53:11;101559.66;;;19.66;100.00